sensor_id;sensor_type;location;lat;lon;timestamp;P1;durP1;ratioP1;P2;durP2;ratioP2
66402;SDS011;53212;52.112;5.144;2023-10-19T00:00:40;7.20;;;6.60;;
66402;SDS011;53212;52.112;5.144;2023-10-19T00:03:10;7.20;;;6.60;;
66402;SDS011;53212;52.112;5.144;2023-10-19T00:05:37;7.40;;;6.80;;
66402;SDS011;53212;52.112;5.144;2023-10-19T00:08:05;7.50;;;6.80;;
66402;SDS011;53212;52.112;5.144;2023-10-19T00:10:53;7.60;;;7.00;;
66402;SDS011;53212;52.112;5.144;2023-10-19T00:13:36;8.30;;;7.60;;
66402;SDS011;53212;52.112;5.144;2023-10-19T00:16:03;8.50;;;7.80;;
66402;SDS011;53212;52.112;5.144;2023-10-19T00:18:48;8.10;;;7.40;;
66402;SDS011;53212;52.112;5.144;2023-10-19T00:21:15;8.70;;;7.90;;
66402;SDS011;53212;52.112;5.144;2023-10-19T00:23:54;9.00;;;8.20;;
66402;SDS011;53212;52.112;5.144;2023-10-19T00:26:22;8.30;;;7.60;;
66402;SDS011;53212;52.112;5.144;2023-10-19T00:28:52;9.10;;;8.20;;
66402;SDS011;53212;52.112;5.144;2023-10-19T00:31:19;8.70;;;7.90;;
66402;SDS011;53212;52.112;5.144;2023-10-19T00:33:48;8.60;;;7.90;;
66402;SDS011;53212;52.112;5.144;2023-10-19T00:36:17;8.90;;;8.10;;
66402;SDS011;53212;52.112;5.144;2023-10-19T00:38:45;8.30;;;7.60;;
66402;SDS011;53212;52.112;5.144;2023-10-19T00:41:14;9.00;;;8.10;;
66402;SDS011;53212;52.112;5.144;2023-10-19T00:43:45;9.70;;;8.60;;
66402;SDS011;53212;52.112;5.144;2023-10-19T00:46:20;10.10;;;9.30;;
66402;SDS011;53212;52.112;5.144;2023-10-19T00:48:53;9.60;;;8.60;;
66402;SDS011;53212;52.112;5.144;2023-10-19T00:51:22;9.90;;;9.00;;
66402;SDS011;53212;52.112;5.144;2023-10-19T00:53:58;9.70;;;9.00;;
66402;SDS011;53212;52.112;5.144;2023-10-19T00:56:30;10.20;;;9.20;;
66402;SDS011;53212;52.112;5.144;2023-10-19T00:58:59;9.40;;;8.70;;
66402;SDS011;53212;52.112;5.144;2023-10-19T01:01:37;10.00;;;9.10;;
66402;SDS011;53212;52.112;5.144;2023-10-19T01:04:10;9.80;;;9.00;;
66402;SDS011;53212;52.112;5.144;2023-10-19T01:06:44;10.60;;;9.60;;
66402;SDS011;53212;52.112;5.144;2023-10-19T01:09:23;10.50;;;9.50;;
66402;SDS011;53212;52.112;5.144;2023-10-19T01:11:52;10.80;;;9.90;;
66402;SDS011;53212;52.112;5.144;2023-10-19T01:14:21;11.30;;;10.10;;
66402;SDS011;53212;52.112;5.144;2023-10-19T01:16:48;11.50;;;10.50;;
66402;SDS011;53212;52.112;5.144;2023-10-19T01:19:15;11.40;;;10.30;;
66402;SDS011;53212;52.112;5.144;2023-10-19T01:21:44;11.80;;;10.60;;
66402;SDS011;53212;52.112;5.144;2023-10-19T01:24:21;11.90;;;10.80;;
66402;SDS011;53212;52.112;5.144;2023-10-19T01:27:05;11.90;;;10.70;;
66402;SDS011;53212;52.112;5.144;2023-10-19T01:29:33;11.40;;;10.40;;
66402;SDS011;53212;52.112;5.144;2023-10-19T01:31:59;12.10;;;10.90;;
66402;SDS011;53212;52.112;5.144;2023-10-19T01:34:33;11.80;;;10.50;;
66402;SDS011;53212;52.112;5.144;2023-10-19T01:37:00;11.50;;;10.50;;
66402;SDS011;53212;52.112;5.144;2023-10-19T01:39:35;11.40;;;10.30;;
66402;SDS011;53212;52.112;5.144;2023-10-19T01:42:02;11.70;;;10.20;;
66402;SDS011;53212;52.112;5.144;2023-10-19T01:44:32;11.80;;;10.70;;
66402;SDS011;53212;52.112;5.144;2023-10-19T01:47:01;11.40;;;10.40;;
66402;SDS011;53212;52.112;5.144;2023-10-19T01:49:27;11.00;;;10.10;;
66402;SDS011;53212;52.112;5.144;2023-10-19T01:51:53;11.30;;;10.30;;
66402;SDS011;53212;52.112;5.144;2023-10-19T01:54:20;11.50;;;10.40;;
66402;SDS011;53212;52.112;5.144;2023-10-19T01:56:54;11.90;;;10.70;;
66402;SDS011;53212;52.112;5.144;2023-10-19T01:59:25;11.20;;;10.20;;
66402;SDS011;53212;52.112;5.144;2023-10-19T02:01:56;10.70;;;9.70;;
66402;SDS011;53212;52.112;5.144;2023-10-19T02:04:23;10.60;;;9.50;;
66402;SDS011;53212;52.112;5.144;2023-10-19T02:06:49;10.60;;;9.60;;
66402;SDS011;53212;52.112;5.144;2023-10-19T02:09:17;10.10;;;9.30;;
66402;SDS011;53212;52.112;5.144;2023-10-19T02:11:56;10.00;;;9.20;;
66402;SDS011;53212;52.112;5.144;2023-10-19T02:14:22;10.00;;;9.10;;
66402;SDS011;53212;52.112;5.144;2023-10-19T02:16:55;9.50;;;8.60;;
66402;SDS011;53212;52.112;5.144;2023-10-19T02:19:22;8.90;;;8.20;;
66402;SDS011;53212;52.112;5.144;2023-10-19T02:21:59;9.20;;;8.50;;
66402;SDS011;53212;52.112;5.144;2023-10-19T02:24:33;9.10;;;8.20;;
66402;SDS011;53212;52.112;5.144;2023-10-19T02:26:58;12.30;;;8.90;;
66402;SDS011;53212;52.112;5.144;2023-10-19T02:29:25;8.70;;;7.90;;
66402;SDS011;53212;52.112;5.144;2023-10-19T02:31:51;8.80;;;8.00;;
66402;SDS011;53212;52.112;5.144;2023-10-19T02:34:18;8.30;;;7.60;;
66402;SDS011;53212;52.112;5.144;2023-10-19T02:36:44;9.10;;;8.30;;
66402;SDS011;53212;52.112;5.144;2023-10-19T02:39:12;9.00;;;8.30;;
66402;SDS011;53212;52.112;5.144;2023-10-19T02:41:45;8.60;;;7.90;;
66402;SDS011;53212;52.112;5.144;2023-10-19T02:44:18;8.50;;;7.70;;
66402;SDS011;53212;52.112;5.144;2023-10-19T02:46:50;8.40;;;7.60;;
66402;SDS011;53212;52.112;5.144;2023-10-19T02:49:18;9.70;;;7.40;;
66402;SDS011;53212;52.112;5.144;2023-10-19T02:51:46;8.50;;;7.60;;
66402;SDS011;53212;52.112;5.144;2023-10-19T02:54:13;7.60;;;7.00;;
66402;SDS011;53212;52.112;5.144;2023-10-19T02:56:47;8.70;;;7.90;;
66402;SDS011;53212;52.112;5.144;2023-10-19T02:59:15;8.00;;;7.30;;
66402;SDS011;53212;52.112;5.144;2023-10-19T03:01:42;7.70;;;7.00;;
66402;SDS011;53212;52.112;5.144;2023-10-19T03:04:11;7.40;;;6.80;;
66402;SDS011;53212;52.112;5.144;2023-10-19T03:06:40;7.60;;;6.90;;
66402;SDS011;53212;52.112;5.144;2023-10-19T03:09:06;8.60;;;7.80;;
66402;SDS011;53212;52.112;5.144;2023-10-19T03:11:55;7.90;;;7.20;;
66402;SDS011;53212;52.112;5.144;2023-10-19T03:14:28;7.20;;;6.60;;
66402;SDS011;53212;52.112;5.144;2023-10-19T03:16:53;6.90;;;6.30;;
66402;SDS011;53212;52.112;5.144;2023-10-19T03:19:22;7.00;;;6.30;;
66402;SDS011;53212;52.112;5.144;2023-10-19T03:21:50;7.20;;;6.40;;
66402;SDS011;53212;52.112;5.144;2023-10-19T03:24:16;8.20;;;6.40;;
66402;SDS011;53212;52.112;5.144;2023-10-19T03:26:49;6.80;;;6.20;;
66402;SDS011;53212;52.112;5.144;2023-10-19T03:29:16;6.30;;;5.80;;
66402;SDS011;53212;52.112;5.144;2023-10-19T03:31:45;6.20;;;5.60;;
66402;SDS011;53212;52.112;5.144;2023-10-19T03:34:12;6.40;;;5.80;;
66402;SDS011;53212;52.112;5.144;2023-10-19T03:36:38;6.30;;;5.70;;
66402;SDS011;53212;52.112;5.144;2023-10-19T03:39:04;7.30;;;5.50;;
66402;SDS011;53212;52.112;5.144;2023-10-19T03:41:43;6.40;;;5.90;;
66402;SDS011;53212;52.112;5.144;2023-10-19T03:44:13;7.20;;;5.00;;
66402;SDS011;53212;52.112;5.144;2023-10-19T03:47:02;5.40;;;5.00;;
66402;SDS011;53212;52.112;5.144;2023-10-19T03:49:30;5.60;;;4.60;;
66402;SDS011;53212;52.112;5.144;2023-10-19T03:52:01;6.00;;;4.80;;
66402;SDS011;53212;52.112;5.144;2023-10-19T03:54:39;4.80;;;4.40;;
66402;SDS011;53212;52.112;5.144;2023-10-19T03:57:05;4.90;;;4.40;;
66402;SDS011;53212;52.112;5.144;2023-10-19T03:59:39;4.70;;;4.30;;
66402;SDS011;53212;52.112;5.144;2023-10-19T04:02:07;5.50;;;4.20;;
66402;SDS011;53212;52.112;5.144;2023-10-19T04:04:41;4.20;;;3.80;;
66402;SDS011;53212;52.112;5.144;2023-10-19T04:07:13;4.90;;;4.00;;
66402;SDS011;53212;52.112;5.144;2023-10-19T04:09:54;4.60;;;3.60;;
66402;SDS011;53212;52.112;5.144;2023-10-19T04:12:33;5.20;;;3.30;;
66402;SDS011;53212;52.112;5.144;2023-10-19T04:15:06;3.80;;;3.50;;
66402;SDS011;53212;52.112;5.144;2023-10-19T04:17:41;4.70;;;2.90;;
66402;SDS011;53212;52.112;5.144;2023-10-19T04:20:16;7.80;;;2.90;;
66402;SDS011;53212;52.112;5.144;2023-10-19T04:22:52;7.40;;;2.70;;
66402;SDS011;53212;52.112;5.144;2023-10-19T04:25:20;3.80;;;2.80;;
66402;SDS011;53212;52.112;5.144;2023-10-19T04:27:47;4.80;;;2.30;;
66402;SDS011;53212;52.112;5.144;2023-10-19T04:30:14;6.00;;;2.40;;
66402;SDS011;53212;52.112;5.144;2023-10-19T04:32:47;3.90;;;2.10;;
66402;SDS011;53212;52.112;5.144;2023-10-19T04:35:14;2.40;;;1.90;;
66402;SDS011;53212;52.112;5.144;2023-10-19T04:37:47;3.30;;;2.00;;
66402;SDS011;53212;52.112;5.144;2023-10-19T04:40:15;2.90;;;1.70;;
66402;SDS011;53212;52.112;5.144;2023-10-19T04:42:41;2.80;;;1.60;;
66402;SDS011;53212;52.112;5.144;2023-10-19T04:45:06;2.80;;;1.80;;
66402;SDS011;53212;52.112;5.144;2023-10-19T04:47:33;4.50;;;1.60;;
66402;SDS011;53212;52.112;5.144;2023-10-19T04:50:02;4.20;;;1.60;;
66402;SDS011;53212;52.112;5.144;2023-10-19T04:52:29;3.90;;;1.80;;
66402;SDS011;53212;52.112;5.144;2023-10-19T04:54:54;2.90;;;1.50;;
66402;SDS011;53212;52.112;5.144;2023-10-19T04:57:20;3.10;;;1.30;;
66402;SDS011;53212;52.112;5.144;2023-10-19T04:59:48;3.60;;;1.50;;
66402;SDS011;53212;52.112;5.144;2023-10-19T05:02:14;4.20;;;1.50;;
66402;SDS011;53212;52.112;5.144;2023-10-19T05:04:39;2.60;;;1.40;;
66402;SDS011;53212;52.112;5.144;2023-10-19T05:07:06;3.80;;;1.30;;
66402;SDS011;53212;52.112;5.144;2023-10-19T05:09:36;3.10;;;1.30;;
66402;SDS011;53212;52.112;5.144;2023-10-19T05:12:04;6.10;;;1.00;;
66402;SDS011;53212;52.112;5.144;2023-10-19T05:14:34;4.80;;;1.50;;
66402;SDS011;53212;52.112;5.144;2023-10-19T05:17:03;3.80;;;1.20;;
66402;SDS011;53212;52.112;5.144;2023-10-19T05:19:35;2.60;;;1.20;;
66402;SDS011;53212;52.112;5.144;2023-10-19T05:22:06;6.00;;;1.20;;
66402;SDS011;53212;52.112;5.144;2023-10-19T05:24:32;5.80;;;1.30;;
66402;SDS011;53212;52.112;5.144;2023-10-19T05:26:58;2.90;;;1.10;;
66402;SDS011;53212;52.112;5.144;2023-10-19T05:29:24;3.00;;;1.50;;
66402;SDS011;53212;52.112;5.144;2023-10-19T05:31:53;3.60;;;1.20;;
66402;SDS011;53212;52.112;5.144;2023-10-19T05:34:23;3.80;;;1.10;;
66402;SDS011;53212;52.112;5.144;2023-10-19T05:36:52;2.70;;;1.00;;
66402;SDS011;53212;52.112;5.144;2023-10-19T05:39:19;4.20;;;1.30;;
66402;SDS011;53212;52.112;5.144;2023-10-19T05:41:46;3.10;;;1.30;;
66402;SDS011;53212;52.112;5.144;2023-10-19T05:44:12;4.10;;;1.20;;
66402;SDS011;53212;52.112;5.144;2023-10-19T05:46:37;3.70;;;1.20;;
66402;SDS011;53212;52.112;5.144;2023-10-19T05:49:05;4.50;;;1.40;;
66402;SDS011;53212;52.112;5.144;2023-10-19T05:51:31;3.90;;;1.20;;
66402;SDS011;53212;52.112;5.144;2023-10-19T05:53:57;2.40;;;1.40;;
66402;SDS011;53212;52.112;5.144;2023-10-19T05:56:29;3.80;;;1.50;;
66402;SDS011;53212;52.112;5.144;2023-10-19T05:58:56;3.50;;;1.20;;
66402;SDS011;53212;52.112;5.144;2023-10-19T06:01:21;3.20;;;1.20;;
66402;SDS011;53212;52.112;5.144;2023-10-19T06:03:47;4.40;;;1.50;;
66402;SDS011;53212;52.112;5.144;2023-10-19T06:06:13;5.10;;;1.50;;
66402;SDS011;53212;52.112;5.144;2023-10-19T06:08:40;2.80;;;1.10;;
66402;SDS011;53212;52.112;5.144;2023-10-19T06:11:05;4.50;;;1.30;;
66402;SDS011;53212;52.112;5.144;2023-10-19T06:13:31;2.90;;;1.30;;
66402;SDS011;53212;52.112;5.144;2023-10-19T06:15:57;4.90;;;1.30;;
66402;SDS011;53212;52.112;5.144;2023-10-19T06:18:22;6.00;;;1.60;;
66402;SDS011;53212;52.112;5.144;2023-10-19T06:20:48;3.40;;;1.30;;
66402;SDS011;53212;52.112;5.144;2023-10-19T06:23:16;3.60;;;1.30;;
66402;SDS011;53212;52.112;5.144;2023-10-19T06:25:43;3.10;;;1.10;;
66402;SDS011;53212;52.112;5.144;2023-10-19T06:28:09;4.20;;;1.30;;
66402;SDS011;53212;52.112;5.144;2023-10-19T06:30:36;3.20;;;1.20;;
66402;SDS011;53212;52.112;5.144;2023-10-19T06:33:02;6.70;;;1.50;;
66402;SDS011;53212;52.112;5.144;2023-10-19T06:35:30;2.50;;;1.30;;
66402;SDS011;53212;52.112;5.144;2023-10-19T06:38:01;4.40;;;1.50;;
66402;SDS011;53212;52.112;5.144;2023-10-19T06:40:29;4.30;;;1.50;;
66402;SDS011;53212;52.112;5.144;2023-10-19T06:42:57;4.40;;;1.50;;
66402;SDS011;53212;52.112;5.144;2023-10-19T06:45:23;5.60;;;1.50;;
66402;SDS011;53212;52.112;5.144;2023-10-19T06:47:55;5.70;;;1.60;;
66402;SDS011;53212;52.112;5.144;2023-10-19T06:50:21;4.20;;;1.60;;
66402;SDS011;53212;52.112;5.144;2023-10-19T06:52:49;3.70;;;1.40;;
66402;SDS011;53212;52.112;5.144;2023-10-19T06:55:16;4.30;;;1.40;;
66402;SDS011;53212;52.112;5.144;2023-10-19T06:57:47;3.60;;;1.50;;
66402;SDS011;53212;52.112;5.144;2023-10-19T07:00:15;6.90;;;1.90;;
66402;SDS011;53212;52.112;5.144;2023-10-19T07:02:47;4.30;;;1.60;;
66402;SDS011;53212;52.112;5.144;2023-10-19T07:05:17;4.00;;;1.40;;
66402;SDS011;53212;52.112;5.144;2023-10-19T07:07:45;4.60;;;1.70;;
66402;SDS011;53212;52.112;5.144;2023-10-19T07:10:12;4.40;;;1.80;;
66402;SDS011;53212;52.112;5.144;2023-10-19T07:12:40;4.40;;;1.60;;
66402;SDS011;53212;52.112;5.144;2023-10-19T07:15:08;3.80;;;1.60;;
66402;SDS011;53212;52.112;5.144;2023-10-19T07:17:41;4.10;;;1.20;;
66402;SDS011;53212;52.112;5.144;2023-10-19T07:20:08;4.20;;;1.60;;
66402;SDS011;53212;52.112;5.144;2023-10-19T07:22:47;3.10;;;1.70;;
66402;SDS011;53212;52.112;5.144;2023-10-19T07:25:13;2.90;;;1.30;;
66402;SDS011;53212;52.112;5.144;2023-10-19T07:27:39;6.40;;;1.70;;
66402;SDS011;53212;52.112;5.144;2023-10-19T07:30:08;8.40;;;1.80;;
66402;SDS011;53212;52.112;5.144;2023-10-19T07:32:35;5.10;;;1.60;;
66402;SDS011;53212;52.112;5.144;2023-10-19T07:35:01;4.10;;;1.70;;
66402;SDS011;53212;52.112;5.144;2023-10-19T07:37:27;4.50;;;1.30;;
66402;SDS011;53212;52.112;5.144;2023-10-19T07:39:54;2.70;;;1.50;;
66402;SDS011;53212;52.112;5.144;2023-10-19T07:42:22;6.00;;;1.50;;
66402;SDS011;53212;52.112;5.144;2023-10-19T07:44:48;6.40;;;1.60;;
66402;SDS011;53212;52.112;5.144;2023-10-19T07:47:16;3.80;;;1.40;;
66402;SDS011;53212;52.112;5.144;2023-10-19T07:49:42;4.60;;;1.80;;
66402;SDS011;53212;52.112;5.144;2023-10-19T07:52:08;7.40;;;1.70;;
66402;SDS011;53212;52.112;5.144;2023-10-19T07:54:36;6.50;;;1.80;;
66402;SDS011;53212;52.112;5.144;2023-10-19T07:57:03;6.80;;;1.90;;
66402;SDS011;53212;52.112;5.144;2023-10-19T07:59:34;4.10;;;1.70;;
66402;SDS011;53212;52.112;5.144;2023-10-19T08:02:01;5.70;;;1.90;;
66402;SDS011;53212;52.112;5.144;2023-10-19T08:04:30;5.00;;;1.80;;
66402;SDS011;53212;52.112;5.144;2023-10-19T08:06:57;6.20;;;2.20;;
66402;SDS011;53212;52.112;5.144;2023-10-19T08:09:23;8.00;;;2.00;;
66402;SDS011;53212;52.112;5.144;2023-10-19T08:11:50;5.40;;;1.70;;
66402;SDS011;53212;52.112;5.144;2023-10-19T08:14:21;4.90;;;1.70;;
66402;SDS011;53212;52.112;5.144;2023-10-19T08:16:47;4.40;;;2.00;;
66402;SDS011;53212;52.112;5.144;2023-10-19T08:19:13;7.30;;;1.80;;
66402;SDS011;53212;52.112;5.144;2023-10-19T08:21:38;5.20;;;1.70;;
66402;SDS011;53212;52.112;5.144;2023-10-19T08:24:04;6.40;;;1.70;;
66402;SDS011;53212;52.112;5.144;2023-10-19T08:26:31;4.60;;;2.00;;
66402;SDS011;53212;52.112;5.144;2023-10-19T08:28:56;4.80;;;2.10;;
66402;SDS011;53212;52.112;5.144;2023-10-19T08:31:29;3.30;;;1.70;;
66402;SDS011;53212;52.112;5.144;2023-10-19T08:33:56;6.00;;;2.00;;
66402;SDS011;53212;52.112;5.144;2023-10-19T08:36:22;5.10;;;1.70;;
66402;SDS011;53212;52.112;5.144;2023-10-19T08:38:47;5.90;;;2.00;;
66402;SDS011;53212;52.112;5.144;2023-10-19T08:41:14;3.30;;;1.70;;
66402;SDS011;53212;52.112;5.144;2023-10-19T08:43:40;10.40;;;2.40;;
66402;SDS011;53212;52.112;5.144;2023-10-19T08:46:06;5.60;;;1.90;;
66402;SDS011;53212;52.112;5.144;2023-10-19T08:48:35;3.90;;;1.50;;
66402;SDS011;53212;52.112;5.144;2023-10-19T08:51:03;5.90;;;1.90;;
66402;SDS011;53212;52.112;5.144;2023-10-19T08:53:36;7.00;;;2.50;;
66402;SDS011;53212;52.112;5.144;2023-10-19T08:56:06;4.90;;;2.10;;
66402;SDS011;53212;52.112;5.144;2023-10-19T08:58:34;7.00;;;2.20;;
66402;SDS011;53212;52.112;5.144;2023-10-19T09:01:02;5.80;;;1.70;;
66402;SDS011;53212;52.112;5.144;2023-10-19T09:03:35;5.50;;;2.20;;
66402;SDS011;53212;52.112;5.144;2023-10-19T09:06:04;3.90;;;1.60;;
66402;SDS011;53212;52.112;5.144;2023-10-19T09:08:30;6.40;;;1.90;;
66402;SDS011;53212;52.112;5.144;2023-10-19T09:11:09;6.20;;;2.30;;
66402;SDS011;53212;52.112;5.144;2023-10-19T09:13:49;4.30;;;2.00;;
66402;SDS011;53212;52.112;5.144;2023-10-19T09:16:19;5.70;;;1.80;;
66402;SDS011;53212;52.112;5.144;2023-10-19T09:18:50;7.10;;;2.00;;
66402;SDS011;53212;52.112;5.144;2023-10-19T09:21:19;6.10;;;1.90;;
66402;SDS011;53212;52.112;5.144;2023-10-19T09:23:54;5.80;;;2.00;;
66402;SDS011;53212;52.112;5.144;2023-10-19T09:26:22;6.20;;;1.80;;
66402;SDS011;53212;52.112;5.144;2023-10-19T09:28:50;4.40;;;2.00;;
66402;SDS011;53212;52.112;5.144;2023-10-19T09:31:19;6.20;;;2.00;;
66402;SDS011;53212;52.112;5.144;2023-10-19T09:33:47;6.30;;;2.20;;
66402;SDS011;53212;52.112;5.144;2023-10-19T09:36:14;7.30;;;2.00;;
66402;SDS011;53212;52.112;5.144;2023-10-19T09:38:47;7.70;;;2.00;;
66402;SDS011;53212;52.112;5.144;2023-10-19T09:41:18;6.00;;;1.70;;
66402;SDS011;53212;52.112;5.144;2023-10-19T09:43:49;8.50;;;1.90;;
66402;SDS011;53212;52.112;5.144;2023-10-19T09:46:26;6.00;;;2.30;;
66402;SDS011;53212;52.112;5.144;2023-10-19T09:48:54;8.60;;;2.40;;
66402;SDS011;53212;52.112;5.144;2023-10-19T09:51:20;6.80;;;1.90;;
66402;SDS011;53212;52.112;5.144;2023-10-19T09:57:10;9.00;;;2.10;;
66402;SDS011;53212;52.112;5.144;2023-10-19T09:59:42;6.70;;;1.70;;
66402;SDS011;53212;52.112;5.144;2023-10-19T10:02:15;7.10;;;2.20;;
66402;SDS011;53212;52.112;5.144;2023-10-19T10:04:43;10.70;;;2.20;;
66402;SDS011;53212;52.112;5.144;2023-10-19T10:07:12;7.10;;;1.90;;
66402;SDS011;53212;52.112;5.144;2023-10-19T10:09:39;6.60;;;1.80;;
66402;SDS011;53212;52.112;5.144;2023-10-19T10:12:17;8.30;;;2.10;;
66402;SDS011;53212;52.112;5.144;2023-10-19T10:15:05;7.60;;;1.90;;
66402;SDS011;53212;52.112;5.144;2023-10-19T10:17:49;7.70;;;2.40;;
66402;SDS011;53212;52.112;5.144;2023-10-19T10:22:45;10.70;;;2.40;;
66402;SDS011;53212;52.112;5.144;2023-10-19T10:25:41;7.10;;;1.90;;
66402;SDS011;53212;52.112;5.144;2023-10-19T10:28:06;7.60;;;2.20;;
66402;SDS011;53212;52.112;5.144;2023-10-19T10:31:12;8.10;;;2.20;;
66402;SDS011;53212;52.112;5.144;2023-10-19T10:33:49;6.90;;;2.40;;
66402;SDS011;53212;52.112;5.144;2023-10-19T10:36:18;8.70;;;2.30;;
66402;SDS011;53212;52.112;5.144;2023-10-19T10:38:45;8.10;;;2.30;;
66402;SDS011;53212;52.112;5.144;2023-10-19T10:41:12;8.80;;;2.30;;
66402;SDS011;53212;52.112;5.144;2023-10-19T10:43:57;6.00;;;2.10;;
66402;SDS011;53212;52.112;5.144;2023-10-19T10:46:25;8.60;;;2.20;;
66402;SDS011;53212;52.112;5.144;2023-10-19T10:48:52;8.30;;;2.00;;
66402;SDS011;53212;52.112;5.144;2023-10-19T10:51:28;8.40;;;2.50;;
66402;SDS011;53212;52.112;5.144;2023-10-19T10:53:57;8.90;;;2.40;;
66402;SDS011;53212;52.112;5.144;2023-10-19T10:56:24;10.70;;;2.50;;
66402;SDS011;53212;52.112;5.144;2023-10-19T10:58:49;7.00;;;2.40;;
66402;SDS011;53212;52.112;5.144;2023-10-19T11:01:27;8.20;;;2.10;;
66402;SDS011;53212;52.112;5.144;2023-10-19T11:04:08;8.80;;;2.60;;
66402;SDS011;53212;52.112;5.144;2023-10-19T11:06:52;7.00;;;2.10;;
66402;SDS011;53212;52.112;5.144;2023-10-19T11:09:20;8.90;;;2.30;;
66402;SDS011;53212;52.112;5.144;2023-10-19T11:11:49;6.00;;;2.20;;
66402;SDS011;53212;52.112;5.144;2023-10-19T11:14:17;12.00;;;2.30;;
66402;SDS011;53212;52.112;5.144;2023-10-19T11:16:43;6.60;;;2.60;;
66402;SDS011;53212;52.112;5.144;2023-10-19T11:19:08;8.00;;;2.20;;
66402;SDS011;53212;52.112;5.144;2023-10-19T11:21:35;6.60;;;2.00;;
66402;SDS011;53212;52.112;5.144;2023-10-19T11:24:01;7.50;;;2.10;;
66402;SDS011;53212;52.112;5.144;2023-10-19T11:26:27;8.50;;;2.30;;
66402;SDS011;53212;52.112;5.144;2023-10-19T11:28:59;8.00;;;2.50;;
66402;SDS011;53212;52.112;5.144;2023-10-19T11:31:35;9.40;;;2.20;;
66402;SDS011;53212;52.112;5.144;2023-10-19T11:34:04;8.90;;;2.30;;
66402;SDS011;53212;52.112;5.144;2023-10-19T11:36:30;8.20;;;1.90;;
66402;SDS011;53212;52.112;5.144;2023-10-19T11:38:56;6.00;;;1.60;;
66402;SDS011;53212;52.112;5.144;2023-10-19T11:41:22;9.10;;;1.90;;
66402;SDS011;53212;52.112;5.144;2023-10-19T11:43:49;6.90;;;2.10;;
66402;SDS011;53212;52.112;5.144;2023-10-19T11:46:16;4.50;;;1.70;;
66402;SDS011;53212;52.112;5.144;2023-10-19T11:48:50;8.60;;;1.90;;
66402;SDS011;53212;52.112;5.144;2023-10-19T11:51:15;6.30;;;1.90;;
66402;SDS011;53212;52.112;5.144;2023-10-19T11:53:42;7.90;;;1.80;;
66402;SDS011;53212;52.112;5.144;2023-10-19T11:56:13;10.10;;;2.30;;
66402;SDS011;53212;52.112;5.144;2023-10-19T11:58:42;7.40;;;2.10;;
66402;SDS011;53212;52.112;5.144;2023-10-19T12:01:10;8.40;;;2.30;;
66402;SDS011;53212;52.112;5.144;2023-10-19T12:03:42;8.60;;;2.40;;
66402;SDS011;53212;52.112;5.144;2023-10-19T12:06:11;7.70;;;1.90;;
66402;SDS011;53212;52.112;5.144;2023-10-19T12:08:38;6.10;;;2.10;;
66402;SDS011;53212;52.112;5.144;2023-10-19T12:11:07;8.00;;;2.30;;
66402;SDS011;53212;52.112;5.144;2023-10-19T12:13:44;6.20;;;2.20;;
66402;SDS011;53212;52.112;5.144;2023-10-19T12:16:13;5.10;;;1.70;;
66402;SDS011;53212;52.112;5.144;2023-10-19T12:18:43;7.50;;;2.40;;
66402;SDS011;53212;52.112;5.144;2023-10-19T12:21:10;6.20;;;2.20;;
66402;SDS011;53212;52.112;5.144;2023-10-19T12:23:42;9.80;;;2.50;;
66402;SDS011;53212;52.112;5.144;2023-10-19T12:26:09;8.10;;;2.40;;
66402;SDS011;53212;52.112;5.144;2023-10-19T12:28:38;11.20;;;2.20;;
66402;SDS011;53212;52.112;5.144;2023-10-19T12:31:04;10.50;;;2.60;;
66402;SDS011;53212;52.112;5.144;2023-10-19T12:33:39;9.60;;;2.20;;
66402;SDS011;53212;52.112;5.144;2023-10-19T12:36:07;5.00;;;2.00;;
66402;SDS011;53212;52.112;5.144;2023-10-19T12:38:51;7.00;;;2.10;;
66402;SDS011;53212;52.112;5.144;2023-10-19T12:41:20;6.90;;;2.30;;
66402;SDS011;53212;52.112;5.144;2023-10-19T12:43:47;8.20;;;2.30;;
66402;SDS011;53212;52.112;5.144;2023-10-19T12:46:15;12.80;;;2.60;;
66402;SDS011;53212;52.112;5.144;2023-10-19T12:48:41;5.80;;;2.10;;
66402;SDS011;53212;52.112;5.144;2023-10-19T12:51:08;7.10;;;1.80;;
66402;SDS011;53212;52.112;5.144;2023-10-19T12:53:37;9.00;;;2.10;;
66402;SDS011;53212;52.112;5.144;2023-10-19T12:56:05;6.00;;;2.30;;
66402;SDS011;53212;52.112;5.144;2023-10-19T12:58:32;9.00;;;2.30;;
66402;SDS011;53212;52.112;5.144;2023-10-19T13:00:58;6.90;;;2.20;;
66402;SDS011;53212;52.112;5.144;2023-10-19T13:03:24;8.60;;;2.30;;
66402;SDS011;53212;52.112;5.144;2023-10-19T13:05:56;6.60;;;2.30;;
66402;SDS011;53212;52.112;5.144;2023-10-19T13:08:23;7.90;;;2.50;;
66402;SDS011;53212;52.112;5.144;2023-10-19T13:10:52;8.10;;;2.10;;
66402;SDS011;53212;52.112;5.144;2023-10-19T13:13:19;7.90;;;2.30;;
66402;SDS011;53212;52.112;5.144;2023-10-19T13:15:47;9.30;;;2.30;;
66402;SDS011;53212;52.112;5.144;2023-10-19T13:18:13;8.00;;;2.60;;
66402;SDS011;53212;52.112;5.144;2023-10-19T13:23:11;7.40;;;2.30;;
66402;SDS011;53212;52.112;5.144;2023-10-19T13:25:38;9.80;;;2.50;;
66402;SDS011;53212;52.112;5.144;2023-10-19T13:28:08;7.70;;;2.50;;
66402;SDS011;53212;52.112;5.144;2023-10-19T13:30:38;11.90;;;3.00;;
66402;SDS011;53212;52.112;5.144;2023-10-19T13:33:05;7.60;;;2.20;;
66402;SDS011;53212;52.112;5.144;2023-10-19T13:35:35;9.80;;;2.70;;
66402;SDS011;53212;52.112;5.144;2023-10-19T13:38:02;8.20;;;2.60;;
66402;SDS011;53212;52.112;5.144;2023-10-19T13:40:29;6.80;;;2.50;;
66402;SDS011;53212;52.112;5.144;2023-10-19T13:42:58;6.40;;;2.30;;
66402;SDS011;53212;52.112;5.144;2023-10-19T13:45:24;9.30;;;2.80;;
66402;SDS011;53212;52.112;5.144;2023-10-19T13:47:50;10.30;;;3.30;;
66402;SDS011;53212;52.112;5.144;2023-10-19T13:50:21;9.00;;;2.70;;
66402;SDS011;53212;52.112;5.144;2023-10-19T13:52:50;6.50;;;2.70;;
66402;SDS011;53212;52.112;5.144;2023-10-19T13:55:17;8.10;;;2.60;;
66402;SDS011;53212;52.112;5.144;2023-10-19T13:57:44;7.50;;;2.60;;
66402;SDS011;53212;52.112;5.144;2023-10-19T14:00:12;7.50;;;2.70;;
66402;SDS011;53212;52.112;5.144;2023-10-19T14:02:45;9.50;;;2.90;;
66402;SDS011;53212;52.112;5.144;2023-10-19T14:05:12;8.60;;;2.30;;
66402;SDS011;53212;52.112;5.144;2023-10-19T14:07:38;8.00;;;2.30;;
66402;SDS011;53212;52.112;5.144;2023-10-19T14:10:06;8.60;;;3.30;;
66402;SDS011;53212;52.112;5.144;2023-10-19T14:12:41;7.30;;;2.50;;
66402;SDS011;53212;52.112;5.144;2023-10-19T14:15:16;10.00;;;2.60;;
66402;SDS011;53212;52.112;5.144;2023-10-19T14:17:46;7.70;;;2.60;;
66402;SDS011;53212;52.112;5.144;2023-10-19T14:20:14;7.40;;;2.30;;
66402;SDS011;53212;52.112;5.144;2023-10-19T14:22:41;7.90;;;2.30;;
66402;SDS011;53212;52.112;5.144;2023-10-19T14:25:11;7.40;;;2.50;;
66402;SDS011;53212;52.112;5.144;2023-10-19T14:27:46;5.10;;;2.20;;
66402;SDS011;53212;52.112;5.144;2023-10-19T14:30:14;10.30;;;2.70;;
66402;SDS011;53212;52.112;5.144;2023-10-19T14:32:45;7.50;;;2.70;;
66402;SDS011;53212;52.112;5.144;2023-10-19T14:35:16;6.90;;;2.70;;
66402;SDS011;53212;52.112;5.144;2023-10-19T14:37:44;7.70;;;2.30;;
66402;SDS011;53212;52.112;5.144;2023-10-19T14:40:17;7.50;;;2.70;;
66402;SDS011;53212;52.112;5.144;2023-10-19T14:42:55;10.40;;;3.00;;
66402;SDS011;53212;52.112;5.144;2023-10-19T14:45:26;9.20;;;2.30;;
66402;SDS011;53212;52.112;5.144;2023-10-19T14:47:56;10.30;;;2.70;;
66402;SDS011;53212;52.112;5.144;2023-10-19T14:50:24;9.60;;;2.80;;
66402;SDS011;53212;52.112;5.144;2023-10-19T14:52:53;7.80;;;2.20;;
66402;SDS011;53212;52.112;5.144;2023-10-19T14:55:22;8.30;;;2.50;;
66402;SDS011;53212;52.112;5.144;2023-10-19T14:57:53;8.60;;;2.70;;
66402;SDS011;53212;52.112;5.144;2023-10-19T15:00:23;10.00;;;3.20;;
66402;SDS011;53212;52.112;5.144;2023-10-19T15:03:08;8.10;;;2.40;;
66402;SDS011;53212;52.112;5.144;2023-10-19T15:05:34;8.20;;;2.70;;
66402;SDS011;53212;52.112;5.144;2023-10-19T15:08:01;8.40;;;2.70;;